createdAt,value
2024-02-19T00:02:05.033Z,99113.41
2024-02-19T00:06:08.570Z,99120.44
2024-02-19T00:10:12.189Z,99126.63
2024-02-19T00:14:16.696Z,99122.16
2024-02-19T00:18:19.812Z,99124.84
2024-02-19T00:22:23.064Z,99122.16
2024-02-19T00:26:26.442Z,99119.47
2024-02-19T00:30:30.730Z,99121.19
2024-02-19T00:34:33.663Z,99118.53
2024-02-19T00:38:36.613Z,99114.13
2024-02-19T00:42:39.647Z,99112.31
2024-02-19T00:46:44.181Z,99107.91
2024-02-19T00:50:47.093Z,99104.41
2024-02-19T00:54:50.087Z,99100.88
2024-02-19T00:58:53.024Z,99101.63
2024-02-19T01:02:57.596Z,99095.63
2024-02-19T01:07:00.537Z,99100.00
2024-02-19T01:11:04.186Z,99092.94
2024-02-19T01:15:07.997Z,99093.78
2024-02-19T01:19:12.706Z,99086.00
2024-02-19T01:23:18.164Z,99092.94
2024-02-19T01:27:22.430Z,99088.69
2024-02-19T01:31:25.609Z,99094.78
2024-02-19T01:35:29.938Z,99095.63
2024-02-19T01:39:32.857Z,99090.41
2024-02-19T01:43:37.298Z,99084.25
2024-02-19T01:47:40.248Z,99081.63
2024-02-19T01:51:44.701Z,99076.38
2024-02-19T01:55:50.511Z,99075.56
2024-02-19T01:59:53.827Z,99060.69
2024-02-19T02:03:57.287Z,99057.31
2024-02-19T02:08:03.116Z,99065.09
2024-02-19T02:12:07.441Z,99065.94
2024-02-19T02:16:10.601Z,99065.94
2024-02-19T02:20:14.173Z,99060.69
2024-02-19T02:24:20.293Z,99067.59
2024-02-19T02:28:24.979Z,99050.19
2024-02-19T02:32:27.915Z,99032.72
2024-02-19T02:36:30.890Z,99045.88
2024-02-19T02:40:33.821Z,99051.94
2024-02-19T02:44:38.148Z,99036.25
2024-02-19T02:48:41.179Z,99037.97
2024-02-19T02:52:44.710Z,99031.03
2024-02-19T02:56:48.288Z,99031.94
2024-02-19T03:00:53.009Z,99027.66
2024-02-19T03:04:56.111Z,99024.09
2024-02-19T03:08:59.199Z,99026.72
2024-02-19T03:13:02.442Z,99029.31
2024-02-19T03:17:08.425Z,99036.25
2024-02-19T03:21:17.177Z,99039.66
2024-02-19T03:25:20.745Z,99045.81
2024-02-19T03:29:23.691Z,99047.63
2024-02-19T03:33:28.200Z,99046.88
2024-02-19T03:37:31.260Z,99052.94
2024-02-19T03:41:34.471Z,99055.63
2024-02-19T03:45:38.717Z,99057.31
2024-02-19T03:49:43.044Z,99060.91
2024-02-19T03:53:46.021Z,99060.84
2024-02-19T03:57:49.013Z,99060.06
2024-02-19T04:01:52.027Z,99064.44
2024-02-19T04:05:56.478Z,99063.59
2024-02-19T04:09:59.462Z,99066.22
2024-02-19T04:14:02.410Z,99061.91
2024-02-19T04:18:05.583Z,99064.50
2024-02-19T04:22:09.972Z,99067.91
2024-02-19T04:26:12.949Z,99073.13
2024-02-19T04:30:16.288Z,99070.59
2024-02-19T04:34:19.467Z,99067.13
2024-02-19T04:38:23.961Z,99066.16
2024-02-19T04:42:26.899Z,99069.59
2024-02-19T04:46:29.821Z,99073.84
2024-02-19T04:50:32.740Z,99069.50
2024-02-19T04:55:06.481Z,99069.50
2024-02-19T04:59:09.453Z,99070.41
2024-02-19T05:03:14.758Z,99071.16
2024-02-19T05:07:19.067Z,99066.81
2024-02-19T05:11:24.016Z,99078.09
2024-02-19T05:15:27.038Z,99071.06
2024-02-19T05:19:30.057Z,99069.28
2024-02-19T05:23:33.085Z,99071.88
2024-02-19T05:27:37.425Z,99079.69
2024-02-19T05:31:41.375Z,99088.38
2024-02-19T05:35:44.974Z,99090.91
2024-02-19T05:39:48.164Z,99077.84
2024-02-19T05:43:52.522Z,99083.06
2024-02-19T05:47:55.741Z,99091.72
2024-02-19T05:51:58.713Z,99086.47
2024-02-19T05:56:01.932Z,99085.63
2024-02-19T06:00:12.173Z,99093.41
2024-02-19T06:04:15.309Z,99098.66
2024-02-19T06:08:19.102Z,99091.56
2024-02-19T06:12:22.286Z,99096.88
2024-02-19T06:16:26.571Z,99096.03
2024-02-19T06:20:29.520Z,99097.84
2024-02-19T06:24:32.440Z,99094.50
2024-02-19T06:28:35.317Z,99093.78
2024-02-19T06:32:39.854Z,99096.56
2024-02-19T06:36:42.819Z,99107.91
2024-02-19T06:40:45.960Z,99105.31
2024-02-19T06:44:49.099Z,99111.31
2024-02-19T06:48:53.445Z,99113.00
2024-02-19T06:52:56.485Z,99120.75
2024-02-19T06:56:59.431Z,99126.78
2024-02-19T07:01:05.407Z,99131.84
2024-02-19T07:05:10.741Z,99140.50
2024-02-19T07:09:13.799Z,99129.06
2024-02-19T07:13:16.708Z,99141.91
2024-02-19T07:17:19.641Z,99140.81
2024-02-19T07:21:25.060Z,99151.88
2024-02-19T07:25:28.127Z,99154.22
2024-02-19T07:29:31.228Z,99156.59
2024-02-19T07:33:36.054Z,99165.97
2024-02-19T07:37:40.598Z,99166.69
2024-02-19T07:41:43.777Z,99169.25
2024-02-19T07:45:46.808Z,99172.56
2024-02-19T07:49:49.815Z,99175.06
2024-02-19T07:53:54.108Z,99175.97
2024-02-19T07:57:57.023Z,99178.75
2024-02-19T08:02:01.298Z,99188.28
2024-02-19T08:06:04.815Z,99193.38
2024-02-19T08:10:10.636Z,99198.38
2024-02-19T08:14:13.669Z,99206.94
2024-02-19T08:18:18.327Z,99219.06
2024-02-19T08:22:21.512Z,99224.06
2024-02-19T08:26:26.852Z,99230.66
2024-02-19T08:30:29.804Z,99229.66
2024-02-19T08:34:32.776Z,99233.03
2024-02-19T08:38:35.814Z,99227.88
2024-02-19T08:42:40.361Z,99225.97
2024-02-19T08:46:43.326Z,99231.06
2024-02-19T08:50:46.739Z,99234.31
2024-02-19T08:54:50.250Z,99246.50
2024-02-19T08:58:54.707Z,99249.91
2024-02-19T09:02:57.832Z,99247.16
2024-02-19T09:07:00.962Z,99247.94
2024-02-19T09:11:04.292Z,99252.28
2024-02-19T09:15:09.189Z,99244.13
2024-02-19T09:19:12.156Z,99238.66
2024-02-19T09:23:17.831Z,99242.00
2024-02-19T09:27:21.885Z,99239.25
2024-02-19T09:31:27.352Z,99251.31
2024-02-19T09:35:30.384Z,99252.84
2024-02-19T09:39:33.353Z,99258.91
2024-02-19T09:43:36.443Z,99264.78
2024-02-19T09:47:46.381Z,99258.63
2024-02-19T09:51:56.463Z,99266.56
2024-02-19T09:55:59.535Z,99264.97
2024-02-19T10:00:05.362Z,99258.91
2024-02-19T10:04:15.580Z,99254.38
2024-02-19T10:08:18.603Z,99258.47
2024-02-19T10:12:21.675Z,99263.59
2024-02-19T10:16:24.619Z,99259.72
2024-02-19T10:20:29.610Z,99266.41
2024-02-19T10:24:33.288Z,99255.78
2024-02-19T10:28:37.250Z,99266.75
2024-02-19T10:32:42.164Z,99264.84
2024-02-19T10:36:47.760Z,99264.94
2024-02-19T10:40:51.059Z,99269.53
2024-02-19T10:44:55.059Z,99266.13
2024-02-19T10:48:59.015Z,99268.63
2024-02-19T10:53:06.844Z,99266.38
2024-02-19T10:57:10.084Z,99259.16
2024-02-19T11:01:13.059Z,99254.75
2024-02-19T11:05:16.500Z,99242.09
2024-02-19T11:09:28.685Z,99234.47
2024-02-19T11:13:38.062Z,99238.22
2024-02-19T11:17:44.180Z,99243.38
2024-02-19T11:21:47.290Z,99230.53
2024-02-19T11:25:51.611Z,99220.91
2024-02-19T11:30:01.408Z,99217.16
2024-02-19T11:34:04.503Z,99221.53
2024-02-19T11:38:07.526Z,99212.34
2024-02-19T11:42:15.873Z,99209.59
2024-02-19T11:46:21.228Z,99198.78
2024-02-19T11:50:28.243Z,99197.59
2024-02-19T11:54:31.853Z,99192.50
2024-02-19T11:58:38.862Z,99182.91
2024-02-19T12:02:44.429Z,99180.28
2024-02-19T12:06:47.548Z,99170.06
2024-02-19T12:10:50.610Z,99170.09
2024-02-19T12:14:54.890Z,99171.88
2024-02-19T12:18:58.457Z,99159.47
2024-02-19T12:23:02.283Z,99150.53
2024-02-19T12:27:05.808Z,99157.91
2024-02-19T12:31:10.640Z,99157.75
2024-02-19T12:35:15.357Z,99151.41
2024-02-19T12:39:19.018Z,99159.38
2024-02-19T12:43:22.419Z,99159.81
2024-02-19T12:47:27.391Z,99161.16
2024-02-19T12:51:34.536Z,99161.41
2024-02-19T12:55:37.814Z,99158.69
2024-02-19T12:59:40.835Z,99156.63
2024-02-19T13:03:45.568Z,99146.38
2024-02-19T13:07:49.178Z,99144.22
2024-02-19T13:11:52.152Z,99144.97
2024-02-19T13:15:55.194Z,99146.06
2024-02-19T13:19:59.730Z,99140.50
2024-02-19T13:24:02.742Z,99126.22
2024-02-19T13:28:06.334Z,99119.63
2024-02-19T13:32:09.975Z,99106.47
2024-02-19T13:36:14.948Z,99105.72
2024-02-19T13:40:18.036Z,99099.78
2024-02-19T13:44:22.704Z,99087.34
2024-02-19T13:48:26.578Z,99093.03
2024-02-19T13:52:30.931Z,99089.38
2024-02-19T13:56:34.024Z,99064.53
2024-02-19T14:00:36.954Z,99049.09
2024-02-19T14:04:39.967Z,99043.09
2024-02-19T14:08:44.663Z,99039.06
2024-02-19T14:12:47.665Z,99051.03
2024-02-19T14:16:51.029Z,99056.88
2024-02-19T14:20:54.017Z,99056.78
2024-02-19T14:24:58.412Z,99061.13
2024-02-19T14:29:06.647Z,99057.84
2024-02-19T14:33:10.428Z,99054.00
2024-02-19T14:37:13.393Z,99054.25
2024-02-19T14:41:17.764Z,99043.81
2024-02-19T14:45:20.778Z,99034.53
2024-02-19T14:49:23.905Z,99030.66
2024-02-19T14:53:26.997Z,99024.16
2024-02-19T14:57:31.331Z,99043.53
2024-02-19T15:01:34.343Z,99051.63
2024-02-19T15:05:37.499Z,99053.63
2024-02-19T15:09:42.605Z,99054.53
2024-02-19T15:13:47.995Z,99057.19
2024-02-19T15:17:51.514Z,99058.81
2024-02-19T15:21:54.643Z,99052.38
2024-02-19T15:25:59.366Z,99051.88
2024-02-19T15:30:07.662Z,99054.84
2024-02-19T15:34:10.681Z,99050.69
2024-02-19T15:38:14.101Z,99048.41
2024-02-19T15:42:17.537Z,99041.78
2024-02-19T15:46:21.864Z,99043.06
2024-02-19T15:50:24.926Z,99038.88
2024-02-19T15:54:29.396Z,99021.78
2024-02-19T15:58:32.897Z,99023.72
2024-02-19T16:02:41.332Z,99023.03
2024-02-19T16:06:45.002Z,99032.78
2024-02-19T16:10:49.344Z,99029.41
2024-02-19T16:14:52.289Z,99029.53
2024-02-19T16:18:57.303Z,99028.03
2024-02-19T16:23:00.354Z,99030.06
2024-02-19T16:27:04.838Z,99024.16
2024-02-19T16:31:08.821Z,99015.59
2024-02-19T16:35:13.386Z,99007.97
2024-02-19T16:39:16.434Z,99004.56
2024-02-19T16:43:19.456Z,99008.28
2024-02-19T16:47:22.513Z,99005.06
2024-02-19T16:51:26.948Z,99010.41
2024-02-19T16:55:30.074Z,99011.50
2024-02-19T16:59:33.087Z,98998.44
2024-02-19T17:03:36.105Z,98989.81
2024-02-19T17:07:40.569Z,98991.81
2024-02-19T17:11:44.373Z,98992.97
2024-02-19T17:15:47.383Z,98999.41
2024-02-19T17:19:50.837Z,98996.84
2024-02-19T17:23:55.421Z,98997.84
2024-02-19T17:27:58.439Z,98998.84
2024-02-19T17:32:01.514Z,99003.41
2024-02-19T17:36:04.849Z,99001.88
2024-02-19T17:40:12.527Z,98989.84
2024-02-19T17:44:15.625Z,98996.09
2024-02-19T17:48:19.516Z,98998.81
2024-02-19T17:52:22.721Z,98991.63
2024-02-19T17:56:27.420Z,98993.25
2024-02-19T18:00:30.419Z,98994.78
2024-02-19T18:04:33.516Z,98993.09
2024-02-19T18:08:37.360Z,98998.34
2024-02-19T18:12:41.661Z,98998.50
2024-02-19T18:16:45.705Z,99010.81
2024-02-19T18:20:50.178Z,99004.66
2024-02-19T18:24:53.251Z,99007.28
2024-02-19T18:28:57.652Z,99014.25
2024-02-19T18:33:02.323Z,99018.63
2024-02-19T18:37:06.202Z,99014.47
2024-02-19T18:41:10.059Z,99020.09
2024-02-19T18:45:14.678Z,99004.97
2024-02-19T18:49:18.482Z,99000.19
2024-02-19T18:53:21.522Z,99002.16
2024-02-19T18:57:24.634Z,98998.00
2024-02-19T19:01:29.094Z,98998.19
2024-02-19T19:05:32.132Z,98992.22
2024-02-19T19:09:40.766Z,98999.38
2024-02-19T19:13:45.152Z,98994.44
2024-02-19T19:17:50.766Z,98988.66
2024-02-19T19:21:53.842Z,98984.41
2024-02-19T19:25:57.488Z,98982.72
2024-02-19T19:30:00.833Z,98980.81
2024-02-19T19:34:05.320Z,98988.66
2024-02-19T19:38:08.305Z,98979.88
2024-02-19T19:42:11.183Z,98983.13
2024-02-19T19:46:15.867Z,98982.25
2024-02-19T19:50:20.601Z,98985.66
2024-02-19T19:54:23.598Z,98972.41
2024-02-19T19:58:32.074Z,98964.41
2024-02-19T20:02:40.088Z,98963.41
2024-02-19T20:06:45.420Z,98962.41
2024-02-19T20:10:48.634Z,98964.09
2024-02-19T20:14:52.934Z,98977.97
2024-02-19T20:18:57.428Z,98969.19
2024-02-19T20:23:01.917Z,98977.13
2024-02-19T20:27:05.367Z,98965.03
2024-02-19T20:31:08.385Z,98961.69
2024-02-19T20:35:11.494Z,98966.25
2024-02-19T20:39:15.971Z,98961.16
2024-02-19T20:43:19.764Z,98958.06
2024-02-19T20:47:22.750Z,98956.97
2024-02-19T20:51:25.686Z,98950.47
2024-02-19T20:55:30.400Z,98955.31
2024-02-19T20:59:34.176Z,98961.69
2024-02-19T21:03:43.036Z,98967.91
2024-02-19T21:07:49.497Z,98970.59
2024-02-19T21:11:54.112Z,98965.38
2024-02-19T21:15:58.979Z,98966.50
2024-02-19T21:20:02.375Z,98962.41
2024-02-19T21:24:05.717Z,98962.53
2024-02-19T21:28:10.044Z,98952.19
2024-02-19T21:32:13.229Z,98952.31
2024-02-19T21:36:16.919Z,98955.88
2024-02-19T21:40:21.229Z,98955.88
2024-02-19T21:44:27.386Z,98951.63
2024-02-19T21:48:30.596Z,98963.72
2024-02-19T21:52:33.720Z,98960.16
2024-02-19T21:56:36.723Z,98956.00
2024-02-19T22:00:41.105Z,98946.53
2024-02-19T22:04:44.308Z,98956.34
2024-02-19T22:08:47.438Z,98958.25
2024-02-19T22:12:50.787Z,98958.41
2024-02-19T22:16:55.180Z,98958.41
2024-02-19T22:20:58.191Z,98954.16
2024-02-19T22:25:01.267Z,98955.16
2024-02-19T22:29:04.326Z,98944.81
2024-02-19T22:33:08.788Z,98945.72
2024-02-19T22:37:11.818Z,98938.03
2024-02-19T22:41:15.394Z,98937.13
2024-02-19T22:45:18.357Z,98944.97
2024-02-19T22:49:22.814Z,98946.78
2024-02-19T22:53:25.722Z,98953.28
2024-02-19T22:57:28.850Z,98941.34
2024-02-19T23:01:32.022Z,98946.06
2024-02-19T23:05:36.653Z,98949.81
2024-02-19T23:09:39.566Z,98958.63
2024-02-19T23:13:42.523Z,98956.03
2024-02-19T23:17:45.515Z,98956.13
2024-02-19T23:21:49.892Z,98951.69
2024-02-19T23:25:54.421Z,98949.09
2024-02-19T23:29:57.462Z,98964.78
2024-02-19T23:34:00.739Z,98962.16
2024-02-19T23:38:05.743Z,98961.44
2024-02-19T23:42:10.113Z,98957.13
2024-02-19T23:46:13.164Z,98964.25
2024-02-19T23:50:16.952Z,98955.75
2024-02-19T23:54:21.510Z,98959.16
2024-02-19T23:58:26.141Z,98965.28
